sensor_id;sensor_type;location;lat;lon;timestamp;pressure;altitude;pressure_sealevel;temperature;humidity
21944;BME280;11136;48.778;9.126;2024-02-16T00:02:19;97150.72;;;11.32;59.14
21944;BME280;11136;48.778;9.126;2024-02-16T00:04:45;97320.41;;;12.47;59.38
21944;BME280;11136;48.778;9.126;2024-02-16T00:07:11;96933.38;;;9.93;59.10
21944;BME280;11136;48.778;9.126;2024-02-16T00:09:36;97139.50;;;11.33;59.26
21944;BME280;11136;48.778;9.126;2024-02-16T00:12:01;97314.31;;;12.48;59.44
21944;BME280;11136;48.778;9.126;2024-02-16T00:14:27;96975.84;;;10.21;59.17
21944;BME280;11136;48.778;9.126;2024-02-16T00:16:52;97173.00;;;11.32;59.22
21944;BME280;11136;48.778;9.126;2024-02-16T00:19:17;97067.19;;;10.69;59.22
21944;BME280;11136;48.778;9.126;2024-02-16T00:21:43;97036.69;;;10.54;59.17
21944;BME280;11136;48.778;9.126;2024-02-16T00:24:09;97159.13;;;11.46;59.61
21944;BME280;11136;48.778;9.126;2024-02-16T00:26:34;97070.25;;;11.10;59.15
21944;BME280;11136;48.778;9.126;2024-02-16T00:28:59;96407.72;;;6.50;59.00
21944;BME280;11136;48.778;9.126;2024-02-16T00:31:25;97155.34;;;11.27;59.02
21944;BME280;11136;48.778;9.126;2024-02-16T00:33:50;96997.28;;;10.55;58.79
21944;BME280;11136;48.778;9.126;2024-02-16T00:36:16;97300.06;;;12.55;59.29
21944;BME280;11136;48.778;9.126;2024-02-16T00:38:41;97303.91;;;12.61;59.11
21944;BME280;11136;48.778;9.126;2024-02-16T00:41:06;97344.97;;;12.63;59.11
21944;BME280;11136;48.778;9.126;2024-02-16T00:43:32;97163.16;;;11.61;59.48
21944;BME280;11136;48.778;9.126;2024-02-16T00:45:57;96891.56;;;9.92;59.20
21944;BME280;11136;48.778;9.126;2024-02-16T00:48:23;97071.44;;;11.17;59.22
21944;BME280;11136;48.778;9.126;2024-02-16T00:50:49;97084.56;;;11.36;59.10
21944;BME280;11136;48.778;9.126;2024-02-16T00:53:14;97232.09;;;12.13;59.35
21944;BME280;11136;48.778;9.126;2024-02-16T00:55:39;97297.72;;;12.64;59.30
21944;BME280;11136;48.778;9.126;2024-02-16T00:58:06;97063.81;;;11.04;59.24
21944;BME280;11136;48.778;9.126;2024-02-16T01:00:32;97282.09;;;12.09;59.15
21944;BME280;11136;48.778;9.126;2024-02-16T01:02:57;97233.59;;;12.05;59.33
21944;BME280;11136;48.778;9.126;2024-02-16T01:05:22;97088.59;;;11.27;59.37
21944;BME280;11136;48.778;9.126;2024-02-16T01:07:48;97146.78;;;11.51;58.99
21944;BME280;11136;48.778;9.126;2024-02-16T01:10:13;97310.69;;;12.62;59.26
21944;BME280;11136;48.778;9.126;2024-02-16T01:12:39;97228.47;;;12.05;59.33
21944;BME280;11136;48.778;9.126;2024-02-16T01:15:05;97186.53;;;11.69;59.34
21944;BME280;11136;48.778;9.126;2024-02-16T01:17:30;97264.22;;;12.19;59.53
21944;BME280;11136;48.778;9.126;2024-02-16T01:19:58;97323.66;;;12.61;59.29
21944;BME280;11136;48.778;9.126;2024-02-16T01:22:23;97202.84;;;11.81;59.43
21944;BME280;11136;48.778;9.126;2024-02-16T01:24:49;96956.84;;;10.47;59.53
21944;BME280;11136;48.778;9.126;2024-02-16T01:27:15;97308.81;;;12.64;59.51
21944;BME280;11136;48.778;9.126;2024-02-16T01:29:41;97008.22;;;10.69;59.65
21944;BME280;11136;48.778;9.126;2024-02-16T01:32:09;97309.66;;;12.65;59.54
21944;BME280;11136;48.778;9.126;2024-02-16T01:34:35;97301.94;;;12.65;59.65
21944;BME280;11136;48.778;9.126;2024-02-16T01:37:00;97144.00;;;11.54;59.48
21944;BME280;11136;48.778;9.126;2024-02-16T01:39:25;97095.28;;;11.06;59.59
21944;BME280;11136;48.778;9.126;2024-02-16T01:41:51;97250.88;;;12.03;59.59
21944;BME280;11136;48.778;9.126;2024-02-16T01:44:16;97210.00;;;12.00;59.47
21944;BME280;11136;48.778;9.126;2024-02-16T01:46:42;96996.53;;;10.65;59.48
21944;BME280;11136;48.778;9.126;2024-02-16T01:49:09;97321.81;;;12.63;59.34
21944;BME280;11136;48.778;9.126;2024-02-16T01:51:35;97147.72;;;11.50;59.63
21944;BME280;11136;48.778;9.126;2024-02-16T01:54:01;97103.94;;;11.40;59.37
21944;BME280;11136;48.778;9.126;2024-02-16T01:56:27;97293.28;;;12.54;59.86
21944;BME280;11136;48.778;9.126;2024-02-16T01:58:53;97289.63;;;12.35;60.15
21944;BME280;11136;48.778;9.126;2024-02-16T02:01:18;97006.81;;;10.77;59.93
21944;BME280;11136;48.778;9.126;2024-02-16T02:03:44;97109.44;;;11.47;59.86
21944;BME280;11136;48.778;9.126;2024-02-16T02:06:09;97297.25;;;12.58;59.81
21944;BME280;11136;48.778;9.126;2024-02-16T02:08:35;97168.63;;;11.80;60.17
21944;BME280;11136;48.778;9.126;2024-02-16T02:11:00;97246.50;;;12.38;60.29
21944;BME280;11136;48.778;9.126;2024-02-16T02:13:27;97306.03;;;12.67;60.33
21944;BME280;11136;48.778;9.126;2024-02-16T02:15:53;97213.03;;;12.05;60.17
21944;BME280;11136;48.778;9.126;2024-02-16T02:18:19;97290.69;;;12.66;60.21
21944;BME280;11136;48.778;9.126;2024-02-16T02:20:44;97275.88;;;12.69;60.55
21944;BME280;11136;48.778;9.126;2024-02-16T02:23:10;97244.63;;;12.40;60.37
21944;BME280;11136;48.778;9.126;2024-02-16T02:25:35;97284.88;;;12.75;60.61
21944;BME280;11136;48.778;9.126;2024-02-16T02:28:01;97209.53;;;12.17;60.75
21944;BME280;11136;48.778;9.126;2024-02-16T02:30:28;97088.22;;;11.56;60.90
21944;BME280;11136;48.778;9.126;2024-02-16T02:32:53;97042.19;;;11.30;60.88
21944;BME280;11136;48.778;9.126;2024-02-16T02:35:19;97286.75;;;12.73;60.94
21944;BME280;11136;48.778;9.126;2024-02-16T02:37:44;97192.47;;;12.16;61.04
21944;BME280;11136;48.778;9.126;2024-02-16T02:40:10;97166.88;;;11.81;61.08
21944;BME280;11136;48.778;9.126;2024-02-16T02:42:35;97033.78;;;11.28;61.10
21944;BME280;11136;48.778;9.126;2024-02-16T02:45:01;97038.91;;;11.17;61.08
21944;BME280;11136;48.778;9.126;2024-02-16T02:47:27;97171.00;;;12.17;61.22
21944;BME280;11136;48.778;9.126;2024-02-16T02:49:52;97269.19;;;12.78;61.23
21944;BME280;11136;48.778;9.126;2024-02-16T02:52:17;96916.53;;;10.49;60.95
21944;BME280;11136;48.778;9.126;2024-02-16T02:54:43;97215.91;;;12.46;61.26
21944;BME280;11136;48.778;9.126;2024-02-16T02:57:08;97173.41;;;11.96;61.45
21944;BME280;11136;48.778;9.126;2024-02-16T02:59:33;97144.22;;;11.97;61.05
21944;BME280;11136;48.778;9.126;2024-02-16T03:01:59;97109.00;;;11.75;61.07
21944;BME280;11136;48.778;9.126;2024-02-16T03:04:24;97199.41;;;12.26;61.46
21944;BME280;11136;48.778;9.126;2024-02-16T03:06:52;97244.88;;;12.82;61.34
21944;BME280;11136;48.778;9.126;2024-02-16T03:09:18;97247.44;;;12.82;61.21
21944;BME280;11136;48.778;9.126;2024-02-16T03:11:43;97206.66;;;12.55;61.50
21944;BME280;11136;48.778;9.126;2024-02-16T03:14:08;96975.09;;;11.13;61.16
21944;BME280;11136;48.778;9.126;2024-02-16T03:16:34;97099.59;;;11.98;61.11
21944;BME280;11136;48.778;9.126;2024-02-16T03:18:59;96993.91;;;11.35;61.24
21944;BME280;11136;48.778;9.126;2024-02-16T03:21:25;97199.28;;;12.62;61.26
21944;BME280;11136;48.778;9.126;2024-02-16T03:23:50;97247.91;;;12.87;60.83
21944;BME280;11136;48.778;9.126;2024-02-16T03:26:17;97165.63;;;12.20;61.00
21944;BME280;11136;48.778;9.126;2024-02-16T03:28:47;97273.41;;;12.79;61.07
21944;BME280;11136;48.778;9.126;2024-02-16T03:31:20;97273.19;;;12.71;60.71
21944;BME280;11136;48.778;9.126;2024-02-16T03:33:46;97157.28;;;11.83;60.78
21944;BME280;11136;48.778;9.126;2024-02-16T03:36:13;97078.81;;;11.21;60.46
21944;BME280;11136;48.778;9.126;2024-02-16T03:38:43;97256.56;;;12.64;60.70
21944;BME280;11136;48.778;9.126;2024-02-16T03:41:20;97254.56;;;12.67;60.60
21944;BME280;11136;48.778;9.126;2024-02-16T03:43:45;97179.59;;;11.82;60.86
21944;BME280;11136;48.778;9.126;2024-02-16T03:46:11;96860.63;;;10.19;60.76
21944;BME280;11136;48.778;9.126;2024-02-16T03:48:36;97203.34;;;12.19;60.99
21944;BME280;11136;48.778;9.126;2024-02-16T03:51:02;97091.84;;;11.64;60.94
21944;BME280;11136;48.778;9.126;2024-02-16T03:53:30;96359.00;;;7.05;60.56
21944;BME280;11136;48.778;9.126;2024-02-16T03:55:55;97185.59;;;12.16;60.92
21944;BME280;11136;48.778;9.126;2024-02-16T03:58:21;97294.94;;;12.78;60.83
21944;BME280;11136;48.778;9.126;2024-02-16T04:00:47;97111.13;;;11.70;60.91
21944;BME280;11136;48.778;9.126;2024-02-16T04:03:14;96811.56;;;9.77;60.89
21944;BME280;11136;48.778;9.126;2024-02-16T04:05:39;97163.06;;;12.09;61.17
21944;BME280;11136;48.778;9.126;2024-02-16T04:08:05;97095.94;;;11.67;61.25
21944;BME280;11136;48.778;9.126;2024-02-16T04:10:31;97208.84;;;12.15;60.86
21944;BME280;11136;48.778;9.126;2024-02-16T04:12:56;97206.97;;;12.17;60.95
21944;BME280;11136;48.778;9.126;2024-02-16T04:15:22;96639.53;;;8.67;61.04
21944;BME280;11136;48.778;9.126;2024-02-16T04:17:47;97264.97;;;12.66;61.05
21944;BME280;11136;48.778;9.126;2024-02-16T04:20:17;97196.56;;;11.72;60.79
21944;BME280;11136;48.778;9.126;2024-02-16T04:22:43;97133.34;;;11.82;61.02
21944;BME280;11136;48.778;9.126;2024-02-16T04:25:08;97222.84;;;12.11;60.87
21944;BME280;11136;48.778;9.126;2024-02-16T04:27:34;97076.72;;;11.26;61.08
21944;BME280;11136;48.778;9.126;2024-02-16T04:30:00;97221.94;;;12.12;61.09
21944;BME280;11136;48.778;9.126;2024-02-16T04:32:25;96997.63;;;10.74;60.53
21944;BME280;11136;48.778;9.126;2024-02-16T04:34:51;97230.81;;;12.08;60.72
21944;BME280;11136;48.778;9.126;2024-02-16T04:37:24;97161.63;;;11.82;60.76
21944;BME280;11136;48.778;9.126;2024-02-16T04:39:50;97022.06;;;11.02;60.38
21944;BME280;11136;48.778;9.126;2024-02-16T04:42:16;96935.06;;;10.41;60.32
21944;BME280;11136;48.778;9.126;2024-02-16T04:44:41;97222.63;;;12.14;60.37
21944;BME280;11136;48.778;9.126;2024-02-16T04:47:07;97282.78;;;12.69;60.58
21944;BME280;11136;48.778;9.126;2024-02-16T04:49:32;97270.84;;;12.68;60.66
21944;BME280;11136;48.778;9.126;2024-02-16T04:51:58;96988.75;;;10.78;60.48
21944;BME280;11136;48.778;9.126;2024-02-16T04:54:23;97320.19;;;12.73;60.92
21944;BME280;11136;48.778;9.126;2024-02-16T04:56:49;97278.09;;;12.74;60.75
21944;BME280;11136;48.778;9.126;2024-02-16T04:59:16;97112.81;;;11.47;60.83
21944;BME280;11136;48.778;9.126;2024-02-16T05:01:43;97065.78;;;11.35;60.42
21944;BME280;11136;48.778;9.126;2024-02-16T05:04:10;97080.44;;;11.22;60.60
21944;BME280;11136;48.778;9.126;2024-02-16T05:06:39;96980.28;;;10.54;60.34
21944;BME280;11136;48.778;9.126;2024-02-16T05:09:05;97104.31;;;11.47;60.61
21944;BME280;11136;48.778;9.126;2024-02-16T05:11:32;97286.72;;;12.62;60.62
21944;BME280;11136;48.778;9.126;2024-02-16T05:13:57;97280.06;;;12.59;60.51
21944;BME280;11136;48.778;9.126;2024-02-16T05:16:23;97208.03;;;12.03;60.38
21944;BME280;11136;48.778;9.126;2024-02-16T05:18:48;97297.38;;;12.57;60.27
21944;BME280;11136;48.778;9.126;2024-02-16T05:21:13;97156.53;;;11.70;59.95
21944;BME280;11136;48.778;9.126;2024-02-16T05:23:39;97188.88;;;11.72;60.58
21944;BME280;11136;48.778;9.126;2024-02-16T05:26:04;97255.09;;;12.15;60.71
21944;BME280;11136;48.778;9.126;2024-02-16T05:28:29;97121.00;;;11.52;60.48
21944;BME280;11136;48.778;9.126;2024-02-16T05:30:55;97287.91;;;12.57;60.49
21944;BME280;11136;48.778;9.126;2024-02-16T05:33:20;97145.16;;;11.50;60.57
21944;BME280;11136;48.778;9.126;2024-02-16T05:35:46;96934.06;;;10.31;60.65
21944;BME280;11136;48.778;9.126;2024-02-16T05:38:16;97003.91;;;10.22;60.82
21944;BME280;11136;48.778;9.126;2024-02-16T05:40:58;97311.47;;;12.29;60.89
21944;BME280;11136;48.778;9.126;2024-02-16T05:43:23;96946.75;;;10.33;60.64
21944;BME280;11136;48.778;9.126;2024-02-16T05:45:49;97294.25;;;12.18;60.73
21944;BME280;11136;48.778;9.126;2024-02-16T05:48:15;97150.97;;;11.52;60.80
21944;BME280;11136;48.778;9.126;2024-02-16T05:50:40;97030.13;;;10.73;60.73
21944;BME280;11136;48.778;9.126;2024-02-16T05:53:06;97306.91;;;12.44;60.97
21944;BME280;11136;48.778;9.126;2024-02-16T05:55:32;97094.34;;;10.96;61.15
21944;BME280;11136;48.778;9.126;2024-02-16T05:57:57;97083.50;;;11.03;60.96
21944;BME280;11136;48.778;9.126;2024-02-16T06:00:22;97303.44;;;12.45;60.95
21944;BME280;11136;48.778;9.126;2024-02-16T06:02:47;97192.69;;;11.55;60.67
21944;BME280;11136;48.778;9.126;2024-02-16T06:05:13;97272.63;;;12.10;60.84
21944;BME280;11136;48.778;9.126;2024-02-16T06:07:38;96805.94;;;9.25;60.75
21944;BME280;11136;48.778;9.126;2024-02-16T06:10:04;97233.84;;;11.54;61.00
21944;BME280;11136;48.778;9.126;2024-02-16T06:12:33;97313.81;;;12.32;61.05
21944;BME280;11136;48.778;9.126;2024-02-16T06:14:58;97316.38;;;12.32;61.04
21944;BME280;11136;48.778;9.126;2024-02-16T06:17:24;97185.16;;;11.17;60.91
21944;BME280;11136;48.778;9.126;2024-02-16T06:19:49;97284.78;;;12.08;60.63
21944;BME280;11136;48.778;9.126;2024-02-16T06:22:15;97263.84;;;11.77;60.93
21944;BME280;11136;48.778;9.126;2024-02-16T06:24:40;97268.38;;;11.98;60.89
21944;BME280;11136;48.778;9.126;2024-02-16T06:27:05;97358.22;;;12.34;60.92
21944;BME280;11136;48.778;9.126;2024-02-16T06:29:34;97334.16;;;12.35;60.95
21944;BME280;11136;48.778;9.126;2024-02-16T06:32:00;97011.84;;;10.30;60.74
21944;BME280;11136;48.778;9.126;2024-02-16T06:34:27;97258.53;;;11.80;60.87
21944;BME280;11136;48.778;9.126;2024-02-16T06:36:52;97352.25;;;12.34;61.05
21944;BME280;11136;48.778;9.126;2024-02-16T06:39:18;97353.31;;;12.31;61.15
21944;BME280;11136;48.778;9.126;2024-02-16T06:41:44;97356.00;;;12.30;61.03
21944;BME280;11136;48.778;9.126;2024-02-16T06:44:14;97357.84;;;12.27;60.88
21944;BME280;11136;48.778;9.126;2024-02-16T06:46:41;97106.44;;;10.46;60.88
21944;BME280;11136;48.778;9.126;2024-02-16T06:49:06;97286.25;;;11.75;60.97
21944;BME280;11136;48.778;9.126;2024-02-16T06:51:31;97142.41;;;10.81;60.99
21944;BME280;11136;48.778;9.126;2024-02-16T06:53:57;97285.88;;;11.45;60.98
21944;BME280;11136;48.778;9.126;2024-02-16T06:56:22;96887.50;;;8.78;60.57
21944;BME280;11136;48.778;9.126;2024-02-16T06:58:48;97139.47;;;10.74;60.77
21944;BME280;11136;48.778;9.126;2024-02-16T07:01:14;97113.19;;;10.47;60.79
21944;BME280;11136;48.778;9.126;2024-02-16T07:03:40;97302.16;;;11.32;60.95
21944;BME280;11136;48.778;9.126;2024-02-16T07:06:06;97163.78;;;10.69;60.85
21944;BME280;11136;48.778;9.126;2024-02-16T07:08:36;97091.13;;;10.21;60.91
21944;BME280;11136;48.778;9.126;2024-02-16T07:11:01;97147.81;;;10.53;60.65
21944;BME280;11136;48.778;9.126;2024-02-16T07:13:33;97350.56;;;11.74;60.98
21944;BME280;11136;48.778;9.126;2024-02-16T07:15:58;97271.00;;;11.13;60.98
21944;BME280;11136;48.778;9.126;2024-02-16T07:18:24;97266.00;;;10.86;61.03
21944;BME280;11136;48.778;9.126;2024-02-16T07:20:49;97305.44;;;11.34;61.37
21944;BME280;11136;48.778;9.126;2024-02-16T07:23:14;97345.03;;;11.67;60.99
21944;BME280;11136;48.778;9.126;2024-02-16T07:25:41;97117.94;;;10.28;61.06
21944;BME280;11136;48.778;9.126;2024-02-16T07:28:07;97229.59;;;10.81;60.87
21944;BME280;11136;48.778;9.126;2024-02-16T07:30:33;97217.91;;;10.90;60.87
21944;BME280;11136;48.778;9.126;2024-02-16T07:32:58;97189.75;;;10.64;60.65
21944;BME280;11136;48.778;9.126;2024-02-16T07:35:24;96852.13;;;8.47;60.81
21944;BME280;11136;48.778;9.126;2024-02-16T07:37:52;97416.91;;;11.92;60.89
21944;BME280;11136;48.778;9.126;2024-02-16T07:40:20;97406.63;;;11.92;60.89
21944;BME280;11136;48.778;9.126;2024-02-16T07:42:45;97380.16;;;11.43;60.68
21944;BME280;11136;48.778;9.126;2024-02-16T07:45:11;96606.97;;;6.80;60.78
21944;BME280;11136;48.778;9.126;2024-02-16T07:47:38;97416.38;;;12.00;60.59
21944;BME280;11136;48.778;9.126;2024-02-16T07:50:05;97404.25;;;12.02;60.69
21944;BME280;11136;48.778;9.126;2024-02-16T07:52:31;97403.63;;;11.99;60.64
21944;BME280;11136;48.778;9.126;2024-02-16T07:54:57;97152.78;;;10.43;60.65
21944;BME280;11136;48.778;9.126;2024-02-16T07:57:23;97271.09;;;11.12;60.74
21944;BME280;11136;48.778;9.126;2024-02-16T07:59:48;97373.81;;;11.35;61.02
21944;BME280;11136;48.778;9.126;2024-02-16T08:02:13;97199.47;;;10.72;60.80
21944;BME280;11136;48.778;9.126;2024-02-16T08:04:41;97409.81;;;12.20;61.08
21944;BME280;11136;48.778;9.126;2024-02-16T08:07:07;97390.69;;;12.24;60.69
21944;BME280;11136;48.778;9.126;2024-02-16T08:09:33;97389.88;;;12.35;60.37
21944;BME280;11136;48.778;9.126;2024-02-16T08:11:59;97443.81;;;12.71;60.11
21944;BME280;11136;48.778;9.126;2024-02-16T08:14:25;97344.34;;;12.48;60.31
21944;BME280;11136;48.778;9.126;2024-02-16T08:16:50;97355.94;;;12.65;59.86
21944;BME280;11136;48.778;9.126;2024-02-16T08:19:16;97408.13;;;13.35;59.52
21944;BME280;11136;48.778;9.126;2024-02-16T08:21:41;97272.22;;;12.61;58.71
21944;BME280;11136;48.778;9.126;2024-02-16T08:24:07;97057.34;;;11.22;58.39
21944;BME280;11136;48.778;9.126;2024-02-16T08:26:32;97380.25;;;13.95;58.06
21944;BME280;11136;48.778;9.126;2024-02-16T08:28:58;97417.38;;;14.47;57.66
21944;BME280;11136;48.778;9.126;2024-02-16T08:31:23;97280.50;;;13.74;57.38
21944;BME280;11136;48.778;9.126;2024-02-16T08:33:48;97008.56;;;12.45;56.60
21944;BME280;11136;48.778;9.126;2024-02-16T08:36:14;97285.56;;;13.97;56.04
21944;BME280;11136;48.778;9.126;2024-02-16T08:38:40;97406.81;;;15.52;55.45
21944;BME280;11136;48.778;9.126;2024-02-16T08:41:05;97392.91;;;15.65;54.94
21944;BME280;11136;48.778;9.126;2024-02-16T08:43:30;97418.31;;;16.09;54.03
21944;BME280;11136;48.778;9.126;2024-02-16T08:45:56;97356.03;;;15.82;53.59
21944;BME280;11136;48.778;9.126;2024-02-16T08:48:22;97323.31;;;15.12;52.54
21944;BME280;11136;48.778;9.126;2024-02-16T08:50:47;97384.41;;;16.32;52.37
21944;BME280;11136;48.778;9.126;2024-02-16T08:53:13;97134.78;;;14.92;51.66
21944;BME280;11136;48.778;9.126;2024-02-16T08:55:39;97453.88;;;17.04;51.19
21944;BME280;11136;48.778;9.126;2024-02-16T08:58:07;97017.13;;;14.61;51.09
21944;BME280;11136;48.778;9.126;2024-02-16T09:00:32;97380.59;;;17.21;50.60
21944;BME280;11136;48.778;9.126;2024-02-16T09:02:58;97263.09;;;16.66;50.11
21944;BME280;11136;48.778;9.126;2024-02-16T09:05:23;97159.97;;;16.34;48.85
21944;BME280;11136;48.778;9.126;2024-02-16T09:07:49;97414.59;;;18.00;45.99
21944;BME280;11136;48.778;9.126;2024-02-16T09:10:14;97419.50;;;18.03;45.24
21944;BME280;11136;48.778;9.126;2024-02-16T09:12:40;97215.13;;;16.71;44.97
21944;BME280;11136;48.778;9.126;2024-02-16T09:15:06;97220.81;;;16.84;44.72
21944;BME280;11136;48.778;9.126;2024-02-16T09:17:32;97215.91;;;16.81;44.73
21944;BME280;11136;48.778;9.126;2024-02-16T09:19:57;97212.44;;;17.18;44.65
21944;BME280;11136;48.778;9.126;2024-02-16T09:22:23;97253.34;;;17.60;44.83
21944;BME280;11136;48.778;9.126;2024-02-16T09:24:48;97254.56;;;17.83;43.79
21944;BME280;11136;48.778;9.126;2024-02-16T09:27:13;97426.50;;;19.00;43.75
21944;BME280;11136;48.778;9.126;2024-02-16T09:29:39;97193.13;;;17.48;43.14
21944;BME280;11136;48.778;9.126;2024-02-16T09:32:05;97479.06;;;18.86;43.36
21944;BME280;11136;48.778;9.126;2024-02-16T09:34:31;97307.41;;;17.82;42.69
21944;BME280;11136;48.778;9.126;2024-02-16T09:36:56;97142.97;;;16.59;43.04
21944;BME280;11136;48.778;9.126;2024-02-16T09:39:22;97172.84;;;16.80;43.08
21944;BME280;11136;48.778;9.126;2024-02-16T09:41:51;97274.56;;;17.28;43.14
21944;BME280;11136;48.778;9.126;2024-02-16T09:44:17;97139.44;;;16.50;43.52
21944;BME280;11136;48.778;9.126;2024-02-16T09:46:43;97197.03;;;16.99;42.38
21944;BME280;11136;48.778;9.126;2024-02-16T09:49:08;97456.72;;;18.57;42.09
21944;BME280;11136;48.778;9.126;2024-02-16T09:51:37;97473.00;;;18.50;42.28
21944;BME280;11136;48.778;9.126;2024-02-16T09:54:03;97365.28;;;17.83;42.47
21944;BME280;11136;48.778;9.126;2024-02-16T09:56:28;97419.38;;;18.23;42.65
21944;BME280;11136;48.778;9.126;2024-02-16T09:58:54;97462.53;;;18.95;42.29
21944;BME280;11136;48.778;9.126;2024-02-16T10:01:23;97463.03;;;19.16;42.23
21944;BME280;11136;48.778;9.126;2024-02-16T10:03:49;97123.81;;;17.14;42.28
21944;BME280;11136;48.778;9.126;2024-02-16T10:06:15;97400.28;;;18.85;41.52
21944;BME280;11136;48.778;9.126;2024-02-16T10:08:51;97392.06;;;18.72;40.70
21944;BME280;11136;48.778;9.126;2024-02-16T10:11:17;97456.81;;;19.09;41.07
21944;BME280;11136;48.778;9.126;2024-02-16T10:13:55;97491.78;;;19.15;40.87
21944;BME280;11136;48.778;9.126;2024-02-16T10:16:20;97455.72;;;18.76;41.44
21944;BME280;11136;48.778;9.126;2024-02-16T10:18:46;97377.91;;;17.95;41.30
21944;BME280;11136;48.778;9.126;2024-02-16T10:21:11;97184.72;;;16.73;41.58
21944;BME280;11136;48.778;9.126;2024-02-16T10:23:36;97426.94;;;18.16;41.78
21944;BME280;11136;48.778;9.126;2024-02-16T10:26:02;97501.56;;;18.50;41.94
21944;BME280;11136;48.778;9.126;2024-02-16T10:28:28;97376.69;;;17.62;42.30
21944;BME280;11136;48.778;9.126;2024-02-16T10:31:00;97311.75;;;17.09;42.29
21944;BME280;11136;48.778;9.126;2024-02-16T10:33:31;97074.13;;;15.54;42.81
21944;BME280;11136;48.778;9.126;2024-02-16T10:35:58;97372.16;;;17.47;42.80
21944;BME280;11136;48.778;9.126;2024-02-16T10:38:25;97366.69;;;17.50;42.89
21944;BME280;11136;48.778;9.126;2024-02-16T10:40:53;97398.56;;;17.60;42.68
21944;BME280;11136;48.778;9.126;2024-02-16T10:43:20;97440.28;;;17.76;42.92
21944;BME280;11136;48.778;9.126;2024-02-16T10:45:46;97367.34;;;17.24;43.08
21944;BME280;11136;48.778;9.126;2024-02-16T10:48:12;97410.63;;;17.51;43.42
21944;BME280;11136;48.778;9.126;2024-02-16T10:50:40;97363.75;;;17.35;43.52
21944;BME280;11136;48.778;9.126;2024-02-16T10:53:13;97456.13;;;17.73;43.28
21944;BME280;11136;48.778;9.126;2024-02-16T10:55:41;97331.22;;;16.86;43.24
21944;BME280;11136;48.778;9.126;2024-02-16T10:58:08;97269.94;;;16.57;43.71
21944;BME280;11136;48.778;9.126;2024-02-16T11:00:34;97534.91;;;18.27;43.67
21944;BME280;11136;48.778;9.126;2024-02-16T11:03:02;97525.50;;;18.26;43.61
21944;BME280;11136;48.778;9.126;2024-02-16T11:05:35;97524.69;;;18.25;43.68
21944;BME280;11136;48.778;9.126;2024-02-16T11:08:02;97448.44;;;17.81;43.96
21944;BME280;11136;48.778;9.126;2024-02-16T11:10:28;97331.44;;;17.02;43.70
21944;BME280;11136;48.778;9.126;2024-02-16T11:12:54;97353.09;;;17.38;43.79
21944;BME280;11136;48.778;9.126;2024-02-16T11:15:31;97463.53;;;17.95;44.00
21944;BME280;11136;48.778;9.126;2024-02-16T11:17:59;97483.09;;;18.35;44.18
21944;BME280;11136;48.778;9.126;2024-02-16T11:20:25;97473.81;;;18.15;43.78
21944;BME280;11136;48.778;9.126;2024-02-16T11:22:52;97516.59;;;18.74;43.64
21944;BME280;11136;48.778;9.126;2024-02-16T11:25:18;97455.50;;;18.34;43.86
21944;BME280;11136;48.778;9.126;2024-02-16T11:27:43;97355.88;;;17.82;43.79
21944;BME280;11136;48.778;9.126;2024-02-16T11:30:10;97475.16;;;18.36;43.77
21944;BME280;11136;48.778;9.126;2024-02-16T11:32:36;97506.81;;;18.85;43.74
21944;BME280;11136;48.778;9.126;2024-02-16T11:35:06;97389.03;;;18.05;43.64
21944;BME280;11136;48.778;9.126;2024-02-16T11:37:32;97442.66;;;18.32;43.79
21944;BME280;11136;48.778;9.126;2024-02-16T11:39:58;97452.22;;;18.32;43.64
21944;BME280;11136;48.778;9.126;2024-02-16T11:42:23;97507.28;;;18.81;43.99
21944;BME280;11136;48.778;9.126;2024-02-16T11:44:54;97509.56;;;18.84;44.01
21944;BME280;11136;48.778;9.126;2024-02-16T11:47:20;97511.56;;;18.90;44.18
21944;BME280;11136;48.778;9.126;2024-02-16T11:50:06;97306.31;;;17.57;44.42
21944;BME280;11136;48.778;9.126;2024-02-16T11:52:34;97522.31;;;18.59;44.42
21944;BME280;11136;48.778;9.126;2024-02-16T11:54:59;97408.78;;;18.34;43.55
21944;BME280;11136;48.778;9.126;2024-02-16T11:57:26;97445.13;;;18.70;43.78
21944;BME280;11136;48.778;9.126;2024-02-16T11:59:52;97477.28;;;19.12;43.55
21944;BME280;11136;48.778;9.126;2024-02-16T12:02:20;97429.38;;;18.89;43.56
21944;BME280;11136;48.778;9.126;2024-02-16T12:04:47;97393.50;;;18.66;42.78
21944;BME280;11136;48.778;9.126;2024-02-16T12:07:13;97274.75;;;17.89;43.49
21944;BME280;11136;48.778;9.126;2024-02-16T12:09:41;97385.22;;;18.71;43.25
21944;BME280;11136;48.778;9.126;2024-02-16T12:12:07;97434.94;;;18.94;43.19
21944;BME280;11136;48.778;9.126;2024-02-16T12:14:32;97323.81;;;18.44;42.94
21944;BME280;11136;48.778;9.126;2024-02-16T12:16:58;97512.81;;;19.73;43.18
21944;BME280;11136;48.778;9.126;2024-02-16T12:19:24;97519.66;;;19.74;43.12
21944;BME280;11136;48.778;9.126;2024-02-16T12:21:54;97358.28;;;18.72;43.19
21944;BME280;11136;48.778;9.126;2024-02-16T12:24:21;97354.16;;;18.61;43.27
21944;BME280;11136;48.778;9.126;2024-02-16T12:26:47;97495.16;;;19.59;43.32
21944;BME280;11136;48.778;9.126;2024-02-16T12:29:13;97455.34;;;19.33;43.26
21944;BME280;11136;48.778;9.126;2024-02-16T12:31:43;97403.22;;;18.90;43.23
21944;BME280;11136;48.778;9.126;2024-02-16T12:34:09;97512.88;;;19.89;43.22
21944;BME280;11136;48.778;9.126;2024-02-16T12:36:39;97486.75;;;19.65;43.24
21944;BME280;11136;48.778;9.126;2024-02-16T12:39:05;97426.69;;;19.24;43.16
21944;BME280;11136;48.778;9.126;2024-02-16T12:41:32;97434.19;;;19.27;43.48
21944;BME280;11136;48.778;9.126;2024-02-16T12:43:57;96896.56;;;15.47;43.00
21944;BME280;11136;48.778;9.126;2024-02-16T12:46:23;97368.75;;;18.80;43.40
21944;BME280;11136;48.778;9.126;2024-02-16T12:48:48;97515.13;;;19.84;43.58
21944;BME280;11136;48.778;9.126;2024-02-16T12:51:13;97366.31;;;18.79;43.53
21944;BME280;11136;48.778;9.126;2024-02-16T12:53:39;97469.91;;;19.25;43.57
21944;BME280;11136;48.778;9.126;2024-02-16T12:56:08;97309.03;;;18.19;43.64